Time;durP1;ratioP1;P1;durP2;ratioP2;P2;SDS_P1;SDS_P2;PMS_P1;PMS_P2;Temp;Humidity;BMP_temperature;BMP_pressure;BME280_temperature;BME280_humidity;BME280_pressure;Samples;Min_cycle;Max_cycle;Signal;HPM_P1;HPM_P2
2023/09/27 00:02:06;;;;;;;8.07;7.28;;;;;;;;;;10338378;28;20223;-78
2023/09/27 00:07:07;;;;;;;11.02;7.43;;;;;;;;;;10344947;28;20223;-78
2023/09/27 00:12:09;;;;;;;7.00;6.18;;;;;;;;;;10352126;28;20224;-78
2023/09/27 00:17:10;;;;;;;6.82;6.30;;;;;;;;;;10352192;28;21062;-79
2023/09/27 00:22:11;;;;;;;7.18;6.47;;;;;;;;;;10349091;28;20233;-79
2023/09/27 00:27:12;;;;;;;9.05;6.30;;;;;;;;;;10355429;28;20275;-79
2023/09/27 00:32:13;;;;;;;7.00;6.28;;;;;;;;;;10349460;28;20248;-79
2023/09/27 00:37:14;;;;;;;9.25;6.28;;;;;;;;;;10348590;28;20220;-79
2023/09/27 00:42:15;;;;;;;7.13;6.25;;;;;;;;;;10337575;28;20223;-79
2023/09/27 00:47:16;;;;;;;6.32;5.45;;;;;;;;;;10352964;28;20224;-79
2023/09/27 00:52:17;;;;;;;8.38;6.25;;;;;;;;;;10367661;28;20223;-79
2023/09/27 00:57:19;;;;;;;9.85;7.43;;;;;;;;;;10354556;28;20218;-79
2023/09/27 01:02:21;;;;;;;9.60;7.40;;;;;;;;;;10330221;28;20854;-79
2023/09/27 01:07:22;;;;;;;7.75;7.00;;;;;;;;;;10340523;28;20216;-79
2023/09/27 01:12:23;;;;;;;7.75;6.97;;;;;;;;;;10351078;28;20425;-80
2023/09/27 01:17:24;;;;;;;9.40;7.72;;;;;;;;;;10352203;28;20258;-79
2023/09/27 01:22:25;;;;;;;9.07;6.85;;;;;;;;;;10351625;28;20304;-79
2023/09/27 01:27:26;;;;;;;8.32;7.45;;;;;;;;;;10350698;28;20311;-79
2023/09/27 01:32:27;;;;;;;8.73;7.80;;;;;;;;;;10345963;28;20222;-79
2023/09/27 01:37:28;;;;;;;12.52;8.73;;;;;;;;;;10345600;28;20227;-79
2023/09/27 01:42:29;;;;;;;8.90;8.00;;;;;;;;;;10349571;28;20226;-80
2023/09/27 01:47:30;;;;;;;12.35;9.10;;;;;;;;;;10335419;28;20219;-78
2023/09/27 01:52:32;;;;;;;8.52;7.60;;;;;;;;;;10339870;28;20216;-78
2023/09/27 01:57:33;;;;;;;14.23;9.13;;;;;;;;;;10341507;28;20226;-79
2023/09/27 02:02:34;;;;;;;13.32;8.68;;;;;;;;;;10337148;28;20215;-77
2023/09/27 02:07:39;;;;;;;10.38;8.15;;;;;;;;;;10339050;28;21615;-79
2023/09/27 02:12:40;;;;;;;11.63;8.07;;;;;;;;;;10337215;28;20589;-78
2023/09/27 02:17:42;;;;;;;8.77;7.55;;;;;;;;;;10337406;28;20315;-77
2023/09/27 02:22:43;;;;;;;8.88;7.53;;;;;;;;;;10338440;28;20658;-78
2023/09/27 02:27:44;;;;;;;9.25;8.35;;;;;;;;;;10348861;28;20654;-77
2023/09/27 02:32:45;;;;;;;8.50;7.32;;;;;;;;;;10343157;28;20269;-78
2023/09/27 02:37:46;;;;;;;12.63;9.02;;;;;;;;;;10348801;28;20721;-78
2023/09/27 02:42:48;;;;;;;11.32;8.45;;;;;;;;;;10347371;28;20240;-78
2023/09/27 02:47:49;;;;;;;9.40;7.68;;;;;;;;;;10333208;28;20219;-79
2023/09/27 02:52:50;;;;;;;9.05;7.55;;;;;;;;;;10344091;28;20215;-79
2023/09/27 02:57:51;;;;;;;10.45;8.45;;;;;;;;;;10345349;28;20223;-78
2023/09/27 03:02:52;;;;;;;10.98;7.40;;;;;;;;;;10335418;28;20230;-79
2023/09/27 03:07:53;;;;;;;9.05;7.60;;;;;;;;;;10327488;28;20278;-78
2023/09/27 03:12:55;;;;;;;12.98;8.18;;;;;;;;;;10333930;28;20204;-77
2023/09/27 03:17:57;;;;;;;9.80;8.13;;;;;;;;;;10341421;28;20248;-78
2023/09/27 03:22:58;;;;;;;9.80;7.68;;;;;;;;;;10343160;28;20669;-78
2023/09/27 03:27:59;;;;;;;8.75;7.60;;;;;;;;;;10345542;28;20224;-79
2023/09/27 03:33:01;;;;;;;9.02;7.63;;;;;;;;;;10344910;28;20211;-79
2023/09/27 03:38:02;;;;;;;15.20;7.75;;;;;;;;;;10347392;28;20235;-77
2023/09/27 03:43:03;;;;;;;7.82;6.93;;;;;;;;;;10353437;28;20255;-76
2023/09/27 03:48:04;;;;;;;11.13;7.28;;;;;;;;;;10351467;28;20330;-78
2023/09/27 03:53:06;;;;;;;8.48;6.68;;;;;;;;;;10352533;28;20223;-78
2023/09/27 03:58:07;;;;;;;7.53;6.72;;;;;;;;;;10352404;28;20281;-79
2023/09/27 04:03:08;;;;;;;10.63;7.53;;;;;;;;;;10345824;28;20224;-78
2023/09/27 04:08:11;;;;;;;8.18;6.90;;;;;;;;;;10353673;28;20339;-78
2023/09/27 04:13:12;;;;;;;7.05;6.07;;;;;;;;;;10356273;28;20216;-80
2023/09/27 04:18:13;;;;;;;5.90;5.40;;;;;;;;;;10361911;28;20212;-79
2023/09/27 04:23:14;;;;;;;7.10;6.40;;;;;;;;;;10368825;28;20227;-78
2023/09/27 04:28:15;;;;;;;6.68;6.15;;;;;;;;;;10352708;28;20649;-79
2023/09/27 04:33:16;;;;;;;8.93;7.28;;;;;;;;;;10352970;28;20230;-79
2023/09/27 04:38:18;;;;;;;7.53;6.15;;;;;;;;;;10347403;28;20957;-79
2023/09/27 04:43:19;;;;;;;10.48;7.20;;;;;;;;;;10329006;28;20224;-79
2023/09/27 04:48:20;;;;;;;7.53;6.32;;;;;;;;;;10336808;28;20231;-78
2023/09/27 04:53:21;;;;;;;8.85;6.65;;;;;;;;;;10339156;28;20239;-80
2023/09/27 04:58:22;;;;;;;9.35;6.82;;;;;;;;;;10342094;28;20283;-80
2023/09/27 05:03:23;;;;;;;8.27;6.93;;;;;;;;;;10343701;28;20286;-80
2023/09/27 05:08:27;;;;;;;9.20;7.82;;;;;;;;;;10331355;28;20244;-79
2023/09/27 05:13:28;;;;;;;8.23;7.03;;;;;;;;;;10352666;28;20216;-78
2023/09/27 05:18:29;;;;;;;12.05;7.40;;;;;;;;;;10336413;28;20216;-78
2023/09/27 05:23:30;;;;;;;11.77;7.28;;;;;;;;;;10339025;28;20653;-78
2023/09/27 05:28:32;;;;;;;9.30;6.85;;;;;;;;;;10336007;28;20267;-78
2023/09/27 05:33:33;;;;;;;9.70;7.13;;;;;;;;;;10355323;28;20212;-79
2023/09/27 05:38:34;;;;;;;11.27;7.35;;;;;;;;;;10332450;28;20212;-79
2023/09/27 05:43:35;;;;;;;9.60;7.70;;;;;;;;;;10347911;28;20232;-79
2023/09/27 05:48:36;;;;;;;10.60;8.15;;;;;;;;;;10354804;28;20228;-79
2023/09/27 05:53:38;;;;;;;19.45;10.00;;;;;;;;;;10350394;28;20270;-79
2023/09/27 05:58:39;;;;;;;15.50;10.15;;;;;;;;;;10343749;28;20238;-79
2023/09/27 06:03:40;;;;;;;13.98;10.95;;;;;;;;;;10359980;28;20391;-78
2023/09/27 06:08:41;;;;;;;18.30;11.85;;;;;;;;;;10355957;28;20251;-78
2023/09/27 06:13:44;;;;;;;16.10;11.93;;;;;;;;;;10361945;28;20244;-78
2023/09/27 06:18:46;;;;;;;19.73;12.50;;;;;;;;;;10358157;28;20215;-78
2023/09/27 06:23:47;;;;;;;16.08;10.93;;;;;;;;;;10349999;28;20693;-79
2023/09/27 06:28:48;;;;;;;20.85;12.70;;;;;;;;;;10354942;28;20216;-79
2023/09/27 06:33:49;;;;;;;21.73;12.70;;;;;;;;;;10358256;28;20217;-79
2023/09/27 06:38:52;;;;;;;16.80;11.85;;;;;;;;;;10346756;28;20243;-79
2023/09/27 06:43:53;;;;;;;19.02;13.85;;;;;;;;;;10352436;28;20243;-79
2023/09/27 06:48:54;;;;;;;19.45;13.45;;;;;;;;;;10361784;28;20230;-79
2023/09/27 06:53:55;;;;;;;17.85;12.60;;;;;;;;;;10347214;28;20220;-78
2023/09/27 06:58:56;;;;;;;16.67;11.98;;;;;;;;;;10350800;28;20295;-78
2023/09/27 07:03:57;;;;;;;17.90;11.70;;;;;;;;;;10338387;28;20220;-78
2023/09/27 07:08:58;;;;;;;18.08;12.15;;;;;;;;;;10356276;28;20228;-78
2023/09/27 07:14:00;;;;;;;12.88;10.02;;;;;;;;;;10361211;28;20599;-79
2023/09/27 07:19:05;;;;;;;13.30;10.90;;;;;;;;;;10359459;28;20307;-78
2023/09/27 07:24:09;;;;;;;11.65;10.20;;;;;;;;;;10359536;28;20232;-78
2023/09/27 07:29:11;;;;;;;12.82;10.13;;;;;;;;;;10358300;28;20759;-77
2023/09/27 07:34:12;;;;;;;11.98;8.90;;;;;;;;;;10363405;28;20204;-77
2023/09/27 07:39:15;;;;;;;8.13;7.43;;;;;;;;;;10359291;28;20216;-78
2023/09/27 07:44:17;;;;;;;10.75;7.63;;;;;;;;;;10353586;28;21136;-77
2023/09/27 07:49:18;;;;;;;17.10;7.15;;;;;;;;;;10358392;28;20216;-77
2023/09/27 07:54:21;;;;;;;8.65;7.28;;;;;;;;;;10355554;28;20220;-77
2023/09/27 07:59:22;;;;;;;11.82;8.43;;;;;;;;;;10357238;28;20299;-77
2023/09/27 08:04:23;;;;;;;10.10;8.75;;;;;;;;;;10342866;28;20303;-78
2023/09/27 08:09:25;;;;;;;11.02;9.25;;;;;;;;;;10357587;28;20212;-78
2023/09/27 08:14:26;;;;;;;12.98;9.65;;;;;;;;;;10355122;28;20310;-77
2023/09/27 08:19:28;;;;;;;10.45;8.60;;;;;;;;;;10352842;28;20820;-77
2023/09/27 08:24:29;;;;;;;17.52;9.32;;;;;;;;;;10352576;28;20223;-79
2023/09/27 08:29:31;;;;;;;16.10;9.93;;;;;;;;;;10355015;28;20235;-79
2023/09/27 08:34:31;;;;;;;11.70;9.27;;;;;;;;;;10353588;28;20212;-78
2023/09/27 08:39:33;;;;;;;15.25;10.40;;;;;;;;;;10355810;28;20215;-77
2023/09/27 08:44:34;;;;;;;12.93;9.77;;;;;;;;;;10355880;28;20223;-77
2023/09/27 08:49:35;;;;;;;14.48;9.75;;;;;;;;;;10347392;28;20258;-78
2023/09/27 08:54:37;;;;;;;11.70;9.75;;;;;;;;;;10357086;28;20215;-78
2023/09/27 08:59:39;;;;;;;12.50;8.98;;;;;;;;;;10334544;28;20204;-78
2023/09/27 09:04:40;;;;;;;11.10;9.70;;;;;;;;;;10357929;28;20228;-78
2023/09/27 09:09:41;;;;;;;14.65;9.50;;;;;;;;;;10355370;28;20240;-77
2023/09/27 09:14:49;;;;;;;8.85;7.65;;;;;;;;;;10354282;28;20205;-79
2023/09/27 09:20:26;;;;;;;9.57;7.47;;;;;;;;;;10352938;28;20863;-79
2023/09/27 09:25:28;;;;;;;11.40;7.72;;;;;;;;;;10354845;28;20839;-78
2023/09/27 09:30:34;;;;;;;7.40;6.70;;;;;;;;;;10356797;28;20342;-78
2023/09/27 09:35:35;;;;;;;9.95;7.55;;;;;;;;;;10359081;28;20212;-79
2023/09/27 09:40:52;;;;;;;9.57;8.40;;;;;;;;;;10355729;28;20723;-79
2023/09/27 09:45:54;;;;;;;6.30;5.75;;;;;;;;;;10353720;28;20270;-79
2023/09/27 09:51:00;;;;;;;7.15;6.55;;;;;;;;;;10348461;28;20701;-79
2023/09/27 09:56:03;;;;;;;9.63;6.60;;;;;;;;;;10350900;28;20227;-78
2023/09/27 10:01:04;;;;;;;8.68;5.00;;;;;;;;;;10342931;28;20242;-79
2023/09/27 10:06:08;;;;;;;4.68;4.47;;;;;;;;;;10353477;28;20247;-80
2023/09/27 10:11:10;;;;;;;5.57;5.13;;;;;;;;;;10335453;28;20236;-78
2023/09/27 10:16:12;;;;;;;5.43;4.95;;;;;;;;;;10348840;28;20235;-79
2023/09/27 10:21:14;;;;;;;5.43;4.40;;;;;;;;;;10348332;28;20216;-78
2023/09/27 10:26:19;;;;;;;4.22;3.92;;;;;;;;;;10343313;28;20988;-79
2023/09/27 10:31:20;;;;;;;5.28;4.25;;;;;;;;;;10347991;28;20223;-78
2023/09/27 10:36:21;;;;;;;3.60;3.40;;;;;;;;;;10344053;28;20262;-78
2023/09/27 10:41:38;;;;;;;3.75;3.58;;;;;;;;;;10346399;28;20212;-78
2023/09/27 10:46:47;;;;;;;3.65;3.55;;;;;;;;;;10346186;28;20279;-78
2023/09/27 10:51:48;;;;;;;4.43;4.13;;;;;;;;;;10319533;28;20285;-77
2023/09/27 10:56:58;;;;;;;4.05;3.80;;;;;;;;;;10346524;28;20212;-78
2023/09/27 11:01:59;;;;;;;4.28;3.72;;;;;;;;;;10347401;28;20217;-77
2023/09/27 11:07:00;;;;;;;3.97;3.63;;;;;;;;;;10325426;28;20219;-78
2023/09/27 11:12:01;;;;;;;3.35;3.25;;;;;;;;;;10325937;28;20284;-78
2023/09/27 11:17:22;;;;;;;4.55;3.45;;;;;;;;;;10345051;28;20216;-78
2023/09/27 11:22:27;;;;;;;5.85;3.15;;;;;;;;;;10339720;28;20244;-78
2023/09/27 11:27:28;;;;;;;3.95;3.63;;;;;;;;;;10343202;28;20836;-77
2023/09/27 11:32:29;;;;;;;4.22;3.80;;;;;;;;;;10365036;28;20347;-78
2023/09/27 11:37:30;;;;;;;3.95;3.53;;;;;;;;;;10346312;28;20315;-78
2023/09/27 11:42:31;;;;;;;3.92;3.70;;;;;;;;;;10341453;28;20761;-78
2023/09/27 11:47:32;;;;;;;6.38;3.70;;;;;;;;;;10346122;28;20212;-78
2023/09/27 11:52:34;;;;;;;3.65;3.45;;;;;;;;;;10341127;28;20698;-77
2023/09/27 11:57:36;;;;;;;4.10;3.15;;;;;;;;;;10331530;28;20212;-78
2023/09/27 12:02:37;;;;;;;3.78;3.67;;;;;;;;;;10353415;28;20303;-78
2023/09/27 12:07:38;;;;;;;4.82;3.70;;;;;;;;;;10355247;28;20216;-78
2023/09/27 12:12:39;;;;;;;4.18;3.88;;;;;;;;;;10355585;28;21185;-78
2023/09/27 12:17:40;;;;;;;5.63;3.95;;;;;;;;;;10353425;28;20220;-78
2023/09/27 12:22:41;;;;;;;6.40;3.72;;;;;;;;;;10334790;28;20212;-79
2023/09/27 12:27:42;;;;;;;4.10;3.80;;;;;;;;;;10351446;28;20238;-78
2023/09/27 12:32:43;;;;;;;4.13;3.70;;;;;;;;;;10338764;28;20215;-77
2023/09/27 12:37:44;;;;;;;3.10;2.95;;;;;;;;;;10354953;28;20840;-78
2023/09/27 12:42:45;;;;;;;3.38;3.17;;;;;;;;;;10338158;28;20223;-78
2023/09/27 12:47:46;;;;;;;3.72;3.45;;;;;;;;;;10334520;28;20753;-78
2023/09/27 12:52:47;;;;;;;3.35;3.25;;;;;;;;;;10346489;28;20208;-78
2023/09/27 12:57:51;;;;;;;3.55;3.25;;;;;;;;;;10354656;28;20208;-78
2023/09/27 13:02:52;;;;;;;3.33;3.13;;;;;;;;;;10351016;28;20244;-77
2023/09/27 13:07:53;;;;;;;3.53;3.33;;;;;;;;;;10334786;28;20299;-78
2023/09/27 13:12:55;;;;;;;3.58;3.30;;;;;;;;;;10352679;28;20208;-79
2023/09/27 13:17:56;;;;;;;3.75;3.45;;;;;;;;;;10341761;28;20763;-78
2023/09/27 13:22:57;;;;;;;3.65;3.45;;;;;;;;;;10335460;28;20285;-79
2023/09/27 13:27:58;;;;;;;3.08;2.88;;;;;;;;;;10353715;28;20223;-78
2023/09/27 13:32:59;;;;;;;4.68;4.10;;;;;;;;;;10352024;28;20224;-78
2023/09/27 13:38:03;;;;;;;4.03;3.83;;;;;;;;;;10329237;28;20635;-79
2023/09/27 13:43:04;;;;;;;3.95;3.83;;;;;;;;;;10343240;28;20220;-78
2023/09/27 13:48:06;;;;;;;4.22;3.97;;;;;;;;;;10347981;28;20327;-79
2023/09/27 13:53:07;;;;;;;4.43;4.07;;;;;;;;;;10349589;28;20220;-78
2023/09/27 13:58:08;;;;;;;4.07;3.90;;;;;;;;;;10350761;28;20696;-78
2023/09/27 14:03:09;;;;;;;3.15;2.88;;;;;;;;;;10351487;28;21024;-78
2023/09/27 14:08:10;;;;;;;4.57;4.15;;;;;;;;;;10349848;28;20219;-79
2023/09/27 14:13:11;;;;;;;3.88;3.60;;;;;;;;;;10351056;28;20309;-79
2023/09/27 14:18:12;;;;;;;3.45;3.20;;;;;;;;;;10347376;28;20266;-79
2023/09/27 14:23:13;;;;;;;3.22;3.03;;;;;;;;;;10335188;28;20223;-79
2023/09/27 14:28:14;;;;;;;4.13;3.85;;;;;;;;;;10364799;28;20231;-80
2023/09/27 14:33:16;;;;;;;3.47;3.38;;;;;;;;;;10341493;28;20227;-80
2023/09/27 14:38:17;;;;;;;3.38;3.17;;;;;;;;;;10350787;28;20298;-78
2023/09/27 14:43:18;;;;;;;3.50;3.25;;;;;;;;;;10351088;28;20314;-79
2023/09/27 14:48:19;;;;;;;3.60;3.42;;;;;;;;;;10349437;28;20224;-79
2023/09/27 14:53:20;;;;;;;3.33;2.90;;;;;;;;;;10334975;28;20244;-79
2023/09/27 14:58:21;;;;;;;3.38;3.25;;;;;;;;;;10352318;28;20555;-78
2023/09/27 15:03:22;;;;;;;2.97;2.88;;;;;;;;;;10346144;28;20218;-79
2023/09/27 15:08:23;;;;;;;2.75;2.55;;;;;;;;;;10351736;28;20274;-79
2023/09/27 15:13:24;;;;;;;3.17;3.03;;;;;;;;;;10354086;28;20266;-78
2023/09/27 15:18:25;;;;;;;3.17;2.97;;;;;;;;;;10349323;28;20296;-79
2023/09/27 15:23:26;;;;;;;3.03;2.67;;;;;;;;;;10351551;28;20242;-79
2023/09/27 15:28:27;;;;;;;3.20;3.00;;;;;;;;;;10355320;28;20306;-79
2023/09/27 15:33:28;;;;;;;3.72;2.90;;;;;;;;;;10353435;28;20212;-79
2023/09/27 15:38:29;;;;;;;3.22;3.13;;;;;;;;;;10358359;28;20274;-77
2023/09/27 15:43:32;;;;;;;3.60;3.35;;;;;;;;;;10357034;28;20212;-79
2023/09/27 15:48:36;;;;;;;3.33;3.13;;;;;;;;;;10358322;28;20262;-79
2023/09/27 15:53:38;;;;;;;2.90;2.80;;;;;;;;;;10359587;28;20601;-79
2023/09/27 15:58:39;;;;;;;3.15;2.95;;;;;;;;;;10357612;28;20218;-78
2023/09/27 16:03:40;;;;;;;2.97;2.83;;;;;;;;;;10352629;28;20270;-79
2023/09/27 16:08:42;;;;;;;3.15;2.70;;;;;;;;;;10357571;28;20220;-77
2023/09/27 16:13:43;;;;;;;3.97;3.58;;;;;;;;;;10345832;28;20201;-77
2023/09/27 16:18:44;;;;;;;3.47;3.17;;;;;;;;;;10342884;28;20222;-78
2023/09/27 16:23:45;;;;;;;4.25;3.25;;;;;;;;;;10337481;28;20216;-78
2023/09/27 16:28:46;;;;;;;3.08;3.00;;;;;;;;;;10344275;28;20647;-78
2023/09/27 16:33:47;;;;;;;2.78;2.67;;;;;;;;;;10347260;28;20227;-78
2023/09/27 16:38:48;;;;;;;2.80;2.70;;;;;;;;;;10362444;28;20239;-79
2023/09/27 16:43:49;;;;;;;3.28;3.13;;;;;;;;;;10345852;28;20227;-78
2023/09/27 16:48:51;;;;;;;3.75;3.20;;;;;;;;;;10344116;28;20277;-79
2023/09/27 16:53:52;;;;;;;3.17;2.92;;;;;;;;;;10337586;28;20628;-79
2023/09/27 16:58:53;;;;;;;4.50;3.50;;;;;;;;;;10356230;28;20212;-78
2023/09/27 17:03:54;;;;;;;4.97;3.45;;;;;;;;;;10354128;28;20219;-79
2023/09/27 17:08:55;;;;;;;4.63;3.75;;;;;;;;;;10338933;28;20577;-80
2023/09/27 17:13:56;;;;;;;3.83;3.63;;;;;;;;;;10351908;28;20204;-80
2023/09/27 17:18:57;;;;;;;3.53;3.42;;;;;;;;;;10356063;28;20224;-79
2023/09/27 17:23:58;;;;;;;3.88;3.78;;;;;;;;;;10346801;28;20216;-79
2023/09/27 17:28:59;;;;;;;3.90;3.70;;;;;;;;;;10349672;28;20851;-79
2023/09/27 17:34:04;;;;;;;4.32;3.75;;;;;;;;;;10349830;28;20287;-78
2023/09/27 17:39:05;;;;;;;3.80;3.55;;;;;;;;;;10348217;28;20212;-79
2023/09/27 17:44:06;;;;;;;4.90;4.60;;;;;;;;;;10330991;28;20227;-79
2023/09/27 17:49:07;;;;;;;4.45;4.10;;;;;;;;;;10344464;28;20723;-80
2023/09/27 17:54:10;;;;;;;4.30;4.10;;;;;;;;;;10350876;28;20239;-79
2023/09/27 17:59:11;;;;;;;5.45;4.32;;;;;;;;;;10346810;28;20228;-79
2023/09/27 18:04:12;;;;;;;4.97;4.68;;;;;;;;;;10333218;28;20243;-78
2023/09/27 18:09:13;;;;;;;4.03;3.72;;;;;;;;;;10329838;28;20220;-79
2023/09/27 18:14:14;;;;;;;5.22;4.00;;;;;;;;;;10341645;28;20231;-78
2023/09/27 18:19:16;;;;;;;4.95;4.57;;;;;;;;;;10340238;28;20247;-79
2023/09/27 18:24:17;;;;;;;4.30;4.10;;;;;;;;;;10335053;28;20240;-79
2023/09/27 18:29:18;;;;;;;4.40;4.20;;;;;;;;;;10336057;28;20635;-79
2023/09/27 18:34:19;;;;;;;4.80;4.43;;;;;;;;;;10328353;28;20219;-79
2023/09/27 18:39:20;;;;;;;4.55;4.25;;;;;;;;;;10322691;28;20597;-79
2023/09/27 18:44:21;;;;;;;5.30;4.97;;;;;;;;;;10346169;28;20220;-79
2023/09/27 18:49:22;;;;;;;4.32;4.15;;;;;;;;;;10340348;28;20297;-80
2023/09/27 18:54:23;;;;;;;5.07;4.60;;;;;;;;;;10333612;28;20697;-79
2023/09/27 18:59:25;;;;;;;5.65;5.18;;;;;;;;;;10336063;28;20212;-79
2023/09/27 19:04:27;;;;;;;5.95;5.50;;;;;;;;;;10337344;28;20232;-78
2023/09/27 19:09:28;;;;;;;5.15;4.75;;;;;;;;;;10334232;28;20231;-79
2023/09/27 19:14:29;;;;;;;6.93;5.53;;;;;;;;;;10348462;28;20228;-80
2023/09/27 19:19:30;;;;;;;6.32;5.82;;;;;;;;;;10345260;28;20598;-80
2023/09/27 19:24:31;;;;;;;6.43;5.78;;;;;;;;;;10350535;28;20231;-79
2023/09/27 19:29:32;;;;;;;7.45;5.93;;;;;;;;;;10355920;28;20844;-81
2023/09/27 19:34:36;;;;;;;5.68;5.15;;;;;;;;;;10377690;28;20212;-80
2023/09/27 19:39:37;;;;;;;5.95;5.45;;;;;;;;;;10373374;28;20215;-80
2023/09/27 19:44:38;;;;;;;6.05;5.25;;;;;;;;;;10369743;28;20674;-80
2023/09/27 19:49:39;;;;;;;6.18;5.60;;;;;;;;;;10363334;28;20216;-80
2023/09/27 19:54:41;;;;;;;5.00;4.70;;;;;;;;;;10351781;28;20306;-80
2023/09/27 19:59:42;;;;;;;5.63;5.30;;;;;;;;;;10358420;28;20228;-80
2023/09/27 20:04:43;;;;;;;5.65;5.25;;;;;;;;;;10378939;28;20220;-80
2023/09/27 20:09:44;;;;;;;5.35;4.75;;;;;;;;;;10355048;28;20719;-80
2023/09/27 20:14:45;;;;;;;6.53;5.93;;;;;;;;;;10352537;28;20222;-79
2023/09/27 20:19:46;;;;;;;8.25;6.03;;;;;;;;;;10358706;28;20754;-79
2023/09/27 20:24:47;;;;;;;8.25;7.15;;;;;;;;;;10352119;28;20325;-79
2023/09/27 20:29:48;;;;;;;7.07;6.05;;;;;;;;;;10348438;28;20726;-79
2023/09/27 20:34:49;;;;;;;6.78;5.75;;;;;;;;;;10358404;28;20235;-79
2023/09/27 20:39:50;;;;;;;6.22;5.53;;;;;;;;;;10348813;28;20232;-79
2023/09/27 20:44:52;;;;;;;5.15;4.68;;;;;;;;;;10351070;28;20247;-79
2023/09/27 20:49:53;;;;;;;6.10;5.53;;;;;;;;;;10351459;28;20812;-79
2023/09/27 20:54:54;;;;;;;6.90;5.75;;;;;;;;;;10353998;28;20303;-80
2023/09/27 20:59:55;;;;;;;6.65;6.05;;;;;;;;;;10352597;28;20212;-79
2023/09/27 21:04:59;;;;;;;8.13;6.70;;;;;;;;;;10356270;28;20211;-79
2023/09/27 21:10:00;;;;;;;8.73;6.35;;;;;;;;;;10352093;28;20764;-79
2023/09/27 21:15:01;;;;;;;6.57;5.97;;;;;;;;;;10322333;28;20220;-81
2023/09/27 21:20:02;;;;;;;6.45;5.85;;;;;;;;;;10350191;28;20216;-79
2023/09/27 21:25:03;;;;;;;7.55;6.63;;;;;;;;;;10332331;28;20307;-80
2023/09/27 21:30:05;;;;;;;8.05;6.63;;;;;;;;;;10331817;28;20824;-80
2023/09/27 21:35:06;;;;;;;6.80;6.20;;;;;;;;;;10333855;28;20680;-79
2023/09/27 21:40:09;;;;;;;6.82;6.20;;;;;;;;;;10350169;28;20196;-79
2023/09/27 21:45:10;;;;;;;7.68;6.95;;;;;;;;;;10347126;28;20232;-79
2023/09/27 21:50:12;;;;;;;8.23;7.40;;;;;;;;;;10348478;28;20235;-79
2023/09/27 21:55:13;;;;;;;10.15;6.80;;;;;;;;;;10351065;28;20534;-79
2023/09/27 22:00:19;;;;;;;7.03;6.38;;;;;;;;;;10345070;28;20340;-80
2023/09/27 22:05:22;;;;;;;6.53;5.90;;;;;;;;;;10355741;28;20604;-78
2023/09/27 22:10:33;;;;;;;7.60;6.75;;;;;;;;;;10350080;28;21005;-79
2023/09/27 22:15:35;;;;;;;7.97;6.72;;;;;;;;;;10345028;28;20243;-81
2023/09/27 22:20:36;;;;;;;8.93;7.95;;;;;;;;;;10346418;28;20215;-79
2023/09/27 22:25:37;;;;;;;7.70;6.90;;;;;;;;;;10350108;28;20739;-79
2023/09/27 22:30:38;;;;;;;11.07;7.35;;;;;;;;;;10347556;28;20216;-80
2023/09/27 22:35:39;;;;;;;7.63;6.65;;;;;;;;;;10326913;28;20223;-80
2023/09/27 22:40:43;;;;;;;8.35;7.53;;;;;;;;;;10330561;28;20220;-80
2023/09/27 22:45:47;;;;;;;8.60;7.70;;;;;;;;;;10344044;28;20236;-80
2023/09/27 22:50:50;;;;;;;8.23;6.57;;;;;;;;;;10346219;28;20816;-80
2023/09/27 22:55:57;;;;;;;8.00;6.85;;;;;;;;;;10348322;28;20216;-79
2023/09/27 23:01:27;;;;;;;8.10;7.30;;;;;;;;;;10342253;28;20372;-80
2023/09/27 23:06:28;;;;;;;7.30;6.65;;;;;;;;;;10354988;28;20761;-80
2023/09/27 23:11:29;;;;;;;9.00;7.53;;;;;;;;;;10332926;28;20224;-81
2023/09/27 23:16:44;;;;;;;7.80;6.65;;;;;;;;;;10341382;28;20405;-81
2023/09/27 23:21:45;;;;;;;8.30;6.93;;;;;;;;;;10323347;28;20274;-80
2023/09/27 23:32:22;;;;;;;12.05;8.15;;;;;;;;;;10344735;28;21033;-79
2023/09/27 23:37:30;;;;;;;8.88;7.53;;;;;;;;;;10344947;28;20892;-80
2023/09/27 23:42:34;;;;;;;9.38;7.28;;;;;;;;;;10324608;28;20248;-79
2023/09/27 23:47:49;;;;;;;7.35;6.60;;;;;;;;;;10344695;28;20673;-81
2023/09/27 23:52:50;;;;;;;8.90;7.20;;;;;;;;;;10344679;28;20723;-80
2023/09/27 23:57:58;;;;;;;11.25;7.75;;;;;;;;;;10340789;28;20212;-80
